createdAt,value
2023-02-11T00:00:55.716Z,1020
2023-02-11T00:02:12.007Z,1020.1
2023-02-11T00:03:28.306Z,1020.1
2023-02-11T00:04:44.602Z,1019.9
2023-02-11T00:06:00.889Z,1019.9
2023-02-11T00:07:16.205Z,1019.9
2023-02-11T00:08:32.491Z,1019.8
2023-02-11T00:09:48.801Z,1019.8
2023-02-11T00:11:05.078Z,1019.8
2023-02-11T00:12:21.381Z,1019.8
2023-02-11T00:13:37.677Z,1019.8
2023-02-11T00:16:10.252Z,1019.6
2023-02-11T00:17:26.542Z,1019.6
2023-02-11T00:18:42.840Z,1019.5
2023-02-11T00:19:59.135Z,1019.5
2023-02-11T00:21:15.436Z,1019.4
2023-02-11T00:22:31.720Z,1019.3
2023-02-11T00:23:47.033Z,1019.3
2023-02-11T00:25:03.331Z,1019.2
2023-02-11T00:26:19.623Z,1019.3
2023-02-11T00:27:35.926Z,1019.2
2023-02-11T00:28:52.214Z,1019.3
2023-02-11T00:30:08.508Z,1019.2
2023-02-11T00:31:24.794Z,1019.2
2023-02-11T00:32:41.105Z,1019.1
2023-02-11T00:33:57.383Z,1019.1
2023-02-11T00:35:13.681Z,1019
2023-02-11T00:36:29.976Z,1019.1
2023-02-11T00:37:46.276Z,1019.1
2023-02-11T00:39:02.558Z,1019.2
2023-02-11T00:40:17.863Z,1019.1
2023-02-11T00:41:34.166Z,1019.1
2023-02-11T00:42:50.464Z,1019
2023-02-11T00:44:06.754Z,1019
2023-02-11T00:45:23.053Z,1019
2023-02-11T00:46:39.351Z,1019
2023-02-11T00:47:55.642Z,1018.9
2023-02-11T00:49:11.940Z,1019
2023-02-11T00:50:28.226Z,1019
2023-02-11T00:51:44.519Z,1019.1
2023-02-11T00:53:00.821Z,1019.1
2023-02-11T00:54:17.114Z,1019.2
2023-02-11T00:55:33.393Z,1019.1
2023-02-11T00:56:48.712Z,1019.1
2023-02-11T00:58:04.995Z,1019.1
2023-02-11T00:59:21.295Z,1019.1
2023-02-11T01:00:37.590Z,1019.1
2023-02-11T01:01:53.874Z,1019
2023-02-11T01:03:10.178Z,1018.9
2023-02-11T01:04:26.473Z,1018.9
2023-02-11T01:05:42.761Z,1018.9
2023-02-11T01:06:59.047Z,1018.8
2023-02-11T01:08:15.355Z,1018.8
2023-02-11T01:09:31.644Z,1018.8
2023-02-11T01:10:47.947Z,1018.8
2023-02-11T01:12:04.225Z,1018.8
2023-02-11T01:13:19.549Z,1018.8
2023-02-11T01:14:35.832Z,1018.8
2023-02-11T01:15:52.125Z,1018.9
2023-02-11T01:17:08.418Z,1018.8
2023-02-11T01:18:24.710Z,1018.9
2023-02-11T01:19:41.009Z,1018.9
2023-02-11T01:20:57.312Z,1018.8
2023-02-11T01:22:13.606Z,1018.8
2023-02-11T01:23:29.901Z,1018.7
2023-02-11T01:24:46.191Z,1018.8
2023-02-11T01:26:02.487Z,1018.7
2023-02-11T01:27:18.768Z,1018.7
2023-02-11T01:28:35.077Z,1018.7
2023-02-11T01:29:50.373Z,1018.7
2023-02-11T01:31:06.665Z,1018.7
2023-02-11T01:32:22.965Z,1018.7
2023-02-11T01:33:39.264Z,1018.8
2023-02-11T01:34:55.546Z,1018.7
2023-02-11T01:36:11.843Z,1018.7
2023-02-11T01:37:28.137Z,1018.6
2023-02-11T01:38:44.426Z,1018.6
2023-02-11T01:40:00.720Z,1018.6
2023-02-11T01:42:33.308Z,1018.7
2023-02-11T01:43:49.607Z,1018.6
2023-02-11T01:45:05.895Z,1018.6
2023-02-11T01:46:21.220Z,1018.6
2023-02-11T01:47:37.510Z,1018.6
2023-02-11T01:48:53.791Z,1018.6
2023-02-11T01:50:10.081Z,1018.6
2023-02-11T01:51:26.376Z,1018.7
2023-02-11T01:52:42.669Z,1018.7
2023-02-11T01:53:58.978Z,1018.6
2023-02-11T01:55:15.268Z,1018.6
2023-02-11T01:56:31.569Z,1018.5
2023-02-11T01:57:47.855Z,1018.5
2023-02-11T01:59:04.160Z,1018.7
2023-02-11T02:00:20.439Z,1018.6
2023-02-11T02:01:36.733Z,1018.7
2023-02-11T02:02:52.048Z,1018.7
2023-02-11T02:04:08.342Z,1018.6
2023-02-11T02:05:24.628Z,1018.5
2023-02-11T02:06:40.921Z,1018.6
2023-02-11T02:07:57.214Z,1018.6
2023-02-11T02:09:13.503Z,1018.7
2023-02-11T02:10:28.822Z,1018.6
2023-02-11T02:11:45.129Z,1018.7
2023-02-11T02:13:01.409Z,1018.7
2023-02-11T02:14:17.706Z,1018.7
2023-02-11T02:15:34.004Z,1018.8
2023-02-11T02:16:50.290Z,1018.7
2023-02-11T02:18:06.593Z,1018.7
2023-02-11T02:19:22.879Z,1018.7
2023-02-11T02:20:39.186Z,1018.7
2023-02-11T02:21:55.464Z,1018.7
2023-02-11T02:23:11.771Z,1018.6
2023-02-11T02:24:28.052Z,1018.7
2023-02-11T02:25:44.343Z,1018.7
2023-02-11T02:26:59.661Z,1018.7
2023-02-11T02:28:15.958Z,1018.7
2023-02-11T02:29:32.243Z,1018.7
2023-02-11T02:30:48.552Z,1018.6
2023-02-11T02:32:04.839Z,1018.6
2023-02-11T02:33:21.138Z,1018.5
2023-02-11T02:34:37.417Z,1018.5
2023-02-11T02:35:53.715Z,1018.5
2023-02-11T02:37:10.016Z,1018.4
2023-02-11T02:38:26.301Z,1018.3
2023-02-11T02:39:42.600Z,1018.2
2023-02-11T02:40:58.897Z,1018.2
2023-02-11T02:42:15.182Z,1018.3
2023-02-11T02:43:30.487Z,1018.3
2023-02-11T02:44:46.780Z,1018.3
2023-02-11T02:46:03.076Z,1018.3
2023-02-11T02:47:19.367Z,1018.4
2023-02-11T02:48:35.669Z,1018.3
2023-02-11T02:49:51.967Z,1018.3
2023-02-11T02:51:08.249Z,1018.3
2023-02-11T02:52:24.540Z,1018.2
2023-02-11T02:53:40.835Z,1018.3
2023-02-11T02:54:57.140Z,1018.2
2023-02-11T02:56:13.440Z,1018.2
2023-02-11T02:57:29.732Z,1018.2
2023-02-11T02:58:46.000Z,1018.1
2023-02-11T03:00:01.323Z,1018.1
2023-02-11T03:01:17.625Z,1018.2
2023-02-11T03:02:33.919Z,1018.1
2023-02-11T03:03:50.201Z,1018.2
2023-02-11T03:05:06.501Z,1018.3
2023-02-11T03:06:22.789Z,1018.3
2023-02-11T03:07:39.080Z,1018.2
2023-02-11T03:08:55.375Z,1018.3
2023-02-11T03:10:11.677Z,1018.3
2023-02-11T03:11:27.965Z,1018.3
2023-02-11T03:12:44.269Z,1018.3
2023-02-11T03:14:00.557Z,1018.3
2023-02-11T03:15:16.844Z,1018.3
2023-02-11T03:16:32.162Z,1018.3
2023-02-11T03:17:48.448Z,1018.3
2023-02-11T03:19:04.743Z,1018.3
2023-02-11T03:20:21.033Z,1018.4
2023-02-11T03:21:37.332Z,1018.3
2023-02-11T03:22:53.626Z,1018.2
2023-02-11T03:24:09.922Z,1018.2
2023-02-11T03:25:26.212Z,1018.1
2023-02-11T03:26:42.502Z,1018.1
2023-02-11T03:27:58.796Z,1018
2023-02-11T03:29:15.088Z,1018
2023-02-11T03:30:31.385Z,1017.9
2023-02-11T03:31:47.677Z,1017.9
2023-02-11T03:33:02.990Z,1017.8
2023-02-11T03:34:19.288Z,1017.8
2023-02-11T03:35:35.570Z,1017.8
2023-02-11T03:36:51.867Z,1017.8
2023-02-11T03:38:08.159Z,1017.9
2023-02-11T03:39:24.460Z,1017.9
2023-02-11T03:40:40.762Z,1017.9
2023-02-11T03:41:57.055Z,1017.8
2023-02-11T03:43:13.332Z,1017.9
2023-02-11T03:44:29.635Z,1017.8
2023-02-11T03:45:45.921Z,1017.7
2023-02-11T03:47:02.213Z,1017.7
2023-02-11T03:48:18.506Z,1017.7
2023-02-11T03:49:33.822Z,1017.8
2023-02-11T03:50:50.119Z,1017.8
2023-02-11T03:52:06.416Z,1017.7
2023-02-11T03:53:22.714Z,1017.8
2023-02-11T03:54:38.993Z,1017.8
2023-02-11T03:55:55.295Z,1017.8
2023-02-11T03:57:11.593Z,1017.8
2023-02-11T03:58:27.883Z,1017.8
2023-02-11T03:59:44.165Z,1017.8
2023-02-11T04:01:00.461Z,1017.8
2023-02-11T04:02:16.766Z,1017.8
2023-02-11T04:03:33.047Z,1017.8
2023-02-11T04:04:49.341Z,1017.8
2023-02-11T04:06:04.655Z,1017.7
2023-02-11T04:07:20.943Z,1017.8
2023-02-11T04:08:37.243Z,1017.7
2023-02-11T04:09:53.530Z,1017.7
2023-02-11T04:11:09.837Z,1017.7
2023-02-11T04:12:26.127Z,1017.7
2023-02-11T04:13:42.420Z,1017.7
2023-02-11T04:14:58.721Z,1017.6
2023-02-11T04:16:15.003Z,1017.6
2023-02-11T04:17:31.291Z,1017.6
2023-02-11T04:18:47.595Z,1017.5
2023-02-11T04:20:03.890Z,1017.6
2023-02-11T04:21:20.189Z,1017.6
2023-02-11T04:22:35.501Z,1017.6
2023-02-11T04:23:51.776Z,1017.7
2023-02-11T04:25:08.072Z,1017.6
2023-02-11T04:26:24.367Z,1017.6
2023-02-11T04:27:40.657Z,1017.6
2023-02-11T04:28:56.965Z,1017.6
2023-02-11T04:30:13.250Z,1017.7
2023-02-11T04:31:29.550Z,1017.7
2023-02-11T04:32:45.830Z,1017.7
2023-02-11T04:34:02.123Z,1017.7
2023-02-11T04:35:18.421Z,1017.7
2023-02-11T04:36:34.730Z,1017.7
2023-02-11T04:37:51.016Z,1017.7
2023-02-11T04:39:06.322Z,1017.7
2023-02-11T04:40:22.614Z,1017.7
2023-02-11T04:41:38.000Z,1017.7
2023-02-11T04:42:55.203Z,1017.7
2023-02-11T04:44:11.505Z,1017.7
2023-02-11T04:45:27.782Z,1017.7
2023-02-11T04:46:44.080Z,1017.7
2023-02-11T04:48:00.374Z,1017.7
2023-02-11T04:49:16.675Z,1017.7
2023-02-11T04:50:32.955Z,1017.7
2023-02-11T04:51:49.254Z,1017.7
2023-02-11T04:53:05.561Z,1017.7
2023-02-11T04:54:21.837Z,1017.7
2023-02-11T04:55:37.159Z,1017.7
2023-02-11T04:56:53.456Z,1017.7
2023-02-11T04:58:09.738Z,1017.7
2023-02-11T04:59:26.039Z,1017.7
2023-02-11T05:00:42.323Z,1017.7
2023-02-11T05:01:58.621Z,1017.7
2023-02-11T05:03:14.916Z,1017.7
2023-02-11T05:04:31.204Z,1017.7
2023-02-11T05:05:47.508Z,1017.7
2023-02-11T05:07:03.789Z,1017.7
2023-02-11T05:08:20.094Z,1017.7
2023-02-11T05:09:36.380Z,1017.7
2023-02-11T05:10:52.681Z,1017.7
2023-02-11T05:12:07.988Z,1017.7
2023-02-11T05:13:24.277Z,1017.7
2023-02-11T05:14:40.582Z,1017.8
2023-02-11T05:15:56.864Z,1017.7
2023-02-11T05:17:13.157Z,1017.7
2023-02-11T05:18:29.457Z,1017.7
2023-02-11T05:19:45.757Z,1017.7
2023-02-11T05:21:02.040Z,1017.7
2023-02-11T05:22:18.343Z,1017.6
2023-02-11T05:23:34.638Z,1017.6
2023-02-11T05:24:50.921Z,1017.6
2023-02-11T05:26:07.214Z,1017.6
2023-02-11T05:27:23.504Z,1017.5
2023-02-11T05:28:38.816Z,1017.5
2023-02-11T05:29:55.124Z,1017.5
2023-02-11T05:31:11.406Z,1017.5
2023-02-11T05:32:27.693Z,1017.5
2023-02-11T05:33:43.993Z,1017.4
2023-02-11T05:35:00.282Z,1017.5
2023-02-11T05:36:16.579Z,1017.5
2023-02-11T05:37:32.878Z,1017.5
2023-02-11T05:38:49.178Z,1017.5
2023-02-11T05:40:05.462Z,1017.5
2023-02-11T05:41:21.752Z,1017.5
2023-02-11T05:42:38.050Z,1017.5
2023-02-11T05:43:54.337Z,1017.5
2023-02-11T05:45:09.646Z,1017.5
2023-02-11T05:46:25.947Z,1017.5
2023-02-11T05:47:42.241Z,1017.5
2023-02-11T05:48:58.529Z,1017.6
2023-02-11T05:50:14.836Z,1017.6
2023-02-11T05:51:31.120Z,1017.6
2023-02-11T05:52:47.415Z,1017.6
2023-02-11T05:54:03.711Z,1017.7
2023-02-11T05:55:20.012Z,1017.6
2023-02-11T05:56:36.299Z,1017.6
2023-02-11T05:57:52.585Z,1017.6
2023-02-11T05:59:08.883Z,1017.6
2023-02-11T06:00:25.188Z,1017.6
2023-02-11T06:01:40.481Z,1017.6
2023-02-11T06:02:56.784Z,1017.5
2023-02-11T06:04:13.081Z,1017.5
2023-02-11T06:05:29.377Z,1017.5
2023-02-11T06:06:45.673Z,1017.5
2023-02-11T06:08:01.959Z,1017.5
2023-02-11T06:09:18.202Z,1017.5
2023-02-11T06:10:34.491Z,1017.5
2023-02-11T06:11:50.751Z,1017.6
2023-02-11T06:13:06.986Z,1017.5
2023-02-11T06:14:23.269Z,1017.5
2023-02-11T06:15:39.525Z,1017.5
2023-02-11T06:16:55.768Z,1017.5
2023-02-11T06:18:11.041Z,1017.5
2023-02-11T06:19:27.261Z,1017.5
2023-02-11T06:20:43.510Z,1017.5
2023-02-11T06:21:59.755Z,1017.5
2023-02-11T06:23:15.985Z,1017.5
2023-02-11T06:24:32.225Z,1017.4
2023-02-11T06:25:47.489Z,1017.4
2023-02-11T06:27:03.741Z,1017.4
2023-02-11T06:28:19.963Z,1017.4
2023-02-11T06:29:36.209Z,1017.3
2023-02-11T06:30:52.440Z,1017.3
2023-02-11T06:32:08.679Z,1017.3
2023-02-11T06:33:24.927Z,1017.2
2023-02-11T06:34:41.167Z,1017.2
2023-02-11T06:35:57.401Z,1017.3
2023-02-11T06:37:13.652Z,1017.3
2023-02-11T06:38:29.890Z,1017.3
2023-02-11T06:39:46.117Z,1017.3
2023-02-11T06:41:02.375Z,1017.3
2023-02-11T06:42:17.620Z,1017.4
2023-02-11T06:43:33.866Z,1017.4
2023-02-11T06:44:50.091Z,1017.3
2023-02-11T06:46:06.333Z,1017.3
2023-02-11T06:47:22.573Z,1017.3
2023-02-11T06:48:38.820Z,1017.4
2023-02-11T06:49:55.056Z,1017.4
2023-02-11T06:51:11.305Z,1017.4
2023-02-11T06:52:27.534Z,1017.3
2023-02-11T06:53:43.783Z,1017.4
2023-02-11T06:55:00.019Z,1017.4
2023-02-11T06:56:16.256Z,1017.4
2023-02-11T06:57:32.494Z,1017.4
2023-02-11T06:58:47.761Z,1017.4
2023-02-11T07:00:03.986Z,1017.4
2023-02-11T07:01:20.226Z,1017.4
2023-02-11T07:02:36.475Z,1017.5
2023-02-11T07:03:52.701Z,1017.5
2023-02-11T07:05:08.955Z,1017.5
2023-02-11T07:06:25.189Z,1017.5
2023-02-11T07:07:41.429Z,1017.5
2023-02-11T07:08:57.663Z,1017.5
2023-02-11T07:10:13.911Z,1017.5
2023-02-11T07:11:30.140Z,1017.4
2023-02-11T07:12:46.384Z,1017.4
2023-02-11T07:14:02.634Z,1017.2
2023-02-11T07:15:17.879Z,1017.3
2023-02-11T07:16:34.123Z,1017.3
2023-02-11T07:17:50.364Z,1017.3
2023-02-11T07:19:06.605Z,1017.3
2023-02-11T07:20:22.839Z,1017.4
2023-02-11T07:21:39.088Z,1017.4
2023-02-11T07:22:55.314Z,1017.4
2023-02-11T07:24:11.550Z,1017.4
2023-02-11T07:25:27.794Z,1017.4
2023-02-11T07:26:44.034Z,1017.4
2023-02-11T07:28:00.267Z,1017.3
2023-02-11T07:29:16.521Z,1017.4
2023-02-11T07:30:32.754Z,1017.4
2023-02-11T07:31:48.018Z,1017.4
2023-02-11T07:33:04.244Z,1017.4
2023-02-11T07:34:20.496Z,1017.4
2023-02-11T07:35:36.731Z,1017.4
2023-02-11T07:36:52.975Z,1017.5
2023-02-11T07:38:09.199Z,1017.5
2023-02-11T07:39:25.454Z,1017.4
2023-02-11T07:40:41.689Z,1017.5
2023-02-11T07:41:57.937Z,1017.5
2023-02-11T07:43:14.166Z,1017.4
2023-02-11T07:44:30.398Z,1017.4
2023-02-11T07:45:46.643Z,1017.4
2023-02-11T07:47:02.887Z,1017.4
2023-02-11T07:48:18.138Z,1017.4
2023-02-11T07:49:34.377Z,1017.3
2023-02-11T07:50:50.631Z,1017.4
2023-02-11T07:52:06.855Z,1017.4
2023-02-11T07:53:23.096Z,1017.4
2023-02-11T07:54:39.337Z,1017.4
2023-02-11T07:55:55.580Z,1017.5
2023-02-11T07:57:11.816Z,1017.4
2023-02-11T07:58:28.056Z,1017.5
2023-02-11T07:59:44.295Z,1017.4
2023-02-11T08:01:00.526Z,1017.4
2023-02-11T08:02:16.783Z,1017.5
2023-02-11T08:03:33.010Z,1017.5
2023-02-11T08:04:48.276Z,1017.4
2023-02-11T08:06:04.500Z,1017.4
2023-02-11T08:07:20.748Z,1017.4
2023-02-11T08:08:36.992Z,1017.4
2023-02-11T08:09:53.218Z,1017.4
2023-02-11T08:11:09.471Z,1017.5
2023-02-11T08:12:25.716Z,1017.4
2023-02-11T08:13:41.945Z,1017.4
2023-02-11T08:14:58.186Z,1017.4
2023-02-11T08:16:14.430Z,1017.3
2023-02-11T08:17:30.658Z,1017.4
2023-02-11T08:18:46.901Z,1017.3
2023-02-11T08:20:03.146Z,1017.3
2023-02-11T08:21:18.409Z,1017.4
2023-02-11T08:22:34.645Z,1017.3
2023-02-11T08:23:50.880Z,1017.3
2023-02-11T08:25:07.111Z,1017.4
2023-02-11T08:26:23.352Z,1017.4
2023-02-11T08:27:39.591Z,1017.4
2023-02-11T08:28:55.830Z,1017.4
2023-02-11T08:30:12.069Z,1017.3
2023-02-11T08:31:28.325Z,1017.3
2023-02-11T08:32:44.549Z,1017.4
2023-02-11T08:34:00.791Z,1017.3
2023-02-11T08:35:17.032Z,1017.4
2023-02-11T08:36:33.277Z,1017.4
2023-02-11T08:37:48.540Z,1017.3
2023-02-11T08:39:04.760Z,1017.3
2023-02-11T08:40:21.003Z,1017.3
2023-02-11T08:41:37.252Z,1017.3
2023-02-11T08:42:53.494Z,1017.4
2023-02-11T08:44:09.729Z,1017.4
2023-02-11T08:45:25.976Z,1017.4
2023-02-11T08:46:42.211Z,1017.4
2023-02-11T08:47:58.448Z,1017.4
2023-02-11T08:49:14.695Z,1017.4
2023-02-11T08:50:30.931Z,1017.5
2023-02-11T08:51:47.160Z,1017.5
2023-02-11T08:53:03.392Z,1017.5
2023-02-11T08:54:18.667Z,1017.4
2023-02-11T08:55:34.902Z,1017.3
2023-02-11T08:56:51.138Z,1017.4
2023-02-11T08:58:07.380Z,1017.4
2023-02-11T08:59:23.626Z,1017.4
2023-02-11T09:00:39.847Z,1017.3
2023-02-11T09:01:56.099Z,1017.3
2023-02-11T09:03:12.332Z,1017.4
2023-02-11T09:04:28.568Z,1017.4
2023-02-11T09:05:44.808Z,1017.4
2023-02-11T09:07:01.055Z,1017.4
2023-02-11T09:08:17.290Z,1017.4
2023-02-11T09:09:33.535Z,1017.4
2023-02-11T09:10:49.767Z,1017.5
2023-02-11T09:12:05.034Z,1017.4
2023-02-11T09:13:21.272Z,1017.5
2023-02-11T09:14:37.495Z,1017.6
2023-02-11T09:15:53.746Z,1017.6
2023-02-11T09:17:09.991Z,1017.6
2023-02-11T09:18:26.231Z,1017.6
2023-02-11T09:19:42.461Z,1017.7
2023-02-11T09:20:58.698Z,1017.8
2023-02-11T09:22:14.945Z,1017.8
2023-02-11T09:23:31.177Z,1017.8
2023-02-11T09:24:47.415Z,1017.9
2023-02-11T09:26:03.669Z,1017.9
2023-02-11T09:27:19.906Z,1018
2023-02-11T09:28:35.148Z,1017.9
2023-02-11T09:29:51.383Z,1018
2023-02-11T09:31:07.629Z,1017.8
2023-02-11T09:32:23.867Z,1017.8
2023-02-11T09:33:40.120Z,1017.8
2023-02-11T09:34:56.348Z,1017.9
2023-02-11T09:36:12.585Z,1017.8
2023-02-11T09:37:28.825Z,1017.9
2023-02-11T09:38:45.074Z,1017.9
2023-02-11T09:40:01.319Z,1017.9
2023-02-11T09:41:17.547Z,1018
2023-02-11T09:42:33.782Z,1018
2023-02-11T09:43:50.038Z,1018
2023-02-11T09:45:05.278Z,1017.9
2023-02-11T09:46:21.526Z,1018
2023-02-11T09:47:37.774Z,1017.9
2023-02-11T09:48:53.998Z,1017.9
2023-02-11T09:50:10.234Z,1017.9
2023-02-11T09:51:26.486Z,1017.9
2023-02-11T09:52:42.709Z,1017.9
2023-02-11T09:53:58.956Z,1018
2023-02-11T09:55:15.203Z,1017.9
2023-02-11T09:56:31.435Z,1017.9
2023-02-11T09:57:47.671Z,1018
2023-02-11T09:59:03.920Z,1018
2023-02-11T10:00:20.145Z,1017.9
2023-02-11T10:01:35.408Z,1017.8
2023-02-11T10:02:51.645Z,1017.8
2023-02-11T10:04:07.883Z,1017.7
2023-02-11T10:05:24.139Z,1017.7
2023-02-11T10:06:40.360Z,1017.7
2023-02-11T10:07:56.609Z,1017.7
2023-02-11T10:09:12.848Z,1017.7
2023-02-11T10:10:29.096Z,1017.7
2023-02-11T10:11:45.324Z,1017.7
2023-02-11T10:13:01.554Z,1017.7
2023-02-11T10:14:17.812Z,1017.6
2023-02-11T10:15:34.040Z,1017.7
2023-02-11T10:16:50.289Z,1017.6
2023-02-11T10:18:05.547Z,1017.7
2023-02-11T10:19:21.786Z,1017.7
2023-02-11T10:20:38.018Z,1017.8
2023-02-11T10:21:54.252Z,1017.7
2023-02-11T10:23:10.493Z,1017.7
2023-02-11T10:24:26.742Z,1017.7
2023-02-11T10:25:42.988Z,1017.6
2023-02-11T10:26:59.212Z,1017.7
2023-02-11T10:28:15.453Z,1017.6
2023-02-11T10:29:31.688Z,1017.7
2023-02-11T10:30:47.927Z,1017.6
2023-02-11T10:32:04.169Z,1017.5
2023-02-11T10:33:20.413Z,1017.5
2023-02-11T10:34:35.663Z,1017.5
2023-02-11T10:35:51.912Z,1017.5
2023-02-11T10:37:08.150Z,1017.5
2023-02-11T10:38:24.377Z,1017.5
2023-02-11T10:39:40.633Z,1017.6
2023-02-11T10:40:55.887Z,1017.6
2023-02-11T10:42:12.131Z,1017.6
2023-02-11T10:43:28.360Z,1017.7
2023-02-11T10:44:44.601Z,1017.7
2023-02-11T10:46:00.854Z,1017.6
2023-02-11T10:47:17.092Z,1017.7
2023-02-11T10:48:33.315Z,1017.7
2023-02-11T10:49:49.560Z,1017.7
2023-02-11T10:51:05.798Z,1017.7
2023-02-11T10:52:22.034Z,1017.7
2023-02-11T10:53:38.274Z,1017.7
2023-02-11T10:54:54.511Z,1017.7
2023-02-11T10:56:10.753Z,1017.6
2023-02-11T10:57:26.005Z,1017.6
2023-02-11T10:58:42.259Z,1017.5
2023-02-11T10:59:58.489Z,1017.5
2023-02-11T11:01:14.740Z,1017.5
2023-02-11T11:02:30.962Z,1017.5
2023-02-11T11:03:47.212Z,1017.6
2023-02-11T11:05:03.441Z,1017.7
2023-02-11T11:06:19.684Z,1017.6
2023-02-11T11:07:35.934Z,1017.7
2023-02-11T11:08:52.165Z,1017.6
2023-02-11T11:10:08.414Z,1017.6
2023-02-11T11:11:24.640Z,1017.6
2023-02-11T11:12:40.883Z,1017.6
2023-02-11T11:13:56.135Z,1017.5
2023-02-11T11:15:12.382Z,1017.5
2023-02-11T11:16:28.618Z,1017.5
2023-02-11T11:17:44.868Z,1017.5
2023-02-11T11:19:01.099Z,1017.4
2023-02-11T11:20:17.342Z,1017.4
2023-02-11T11:21:33.583Z,1017.4
2023-02-11T11:22:49.807Z,1017.4
2023-02-11T11:24:06.069Z,1017.5
2023-02-11T11:25:22.293Z,1017.4
2023-02-11T11:26:38.527Z,1017.4
2023-02-11T11:27:54.781Z,1017.4
2023-02-11T11:29:11.017Z,1017.4
2023-02-11T11:30:26.274Z,1017.3
2023-02-11T11:31:42.514Z,1017.3
2023-02-11T11:32:58.742Z,1017.3
2023-02-11T11:34:14.990Z,1017.3
2023-02-11T11:35:31.232Z,1017.4
2023-02-11T11:36:47.480Z,1017.4
2023-02-11T11:38:03.701Z,1017.4
2023-02-11T11:39:19.940Z,1017.4
2023-02-11T11:40:36.184Z,1017.5
2023-02-11T11:41:52.423Z,1017.6
2023-02-11T11:43:08.666Z,1017.7
2023-02-11T11:44:24.900Z,1017.7
2023-02-11T11:45:41.138Z,1017.7
2023-02-11T11:46:56.394Z,1017.7
2023-02-11T11:48:12.648Z,1017.7
2023-02-11T11:49:28.883Z,1017.7
2023-02-11T11:50:45.117Z,1017.7
2023-02-11T11:52:01.362Z,1017.6
2023-02-11T11:53:17.611Z,1017.6
2023-02-11T11:54:33.833Z,1017.7
2023-02-11T11:55:50.069Z,1017.8
2023-02-11T11:57:06.314Z,1017.7
2023-02-11T11:58:22.560Z,1017.7
2023-02-11T11:59:38.788Z,1017.7
2023-02-11T12:00:55.023Z,1017.7
2023-02-11T12:02:11.276Z,1017.8
2023-02-11T12:03:26.519Z,1017.7
2023-02-11T12:04:42.761Z,1017.6
2023-02-11T12:05:59.009Z,1017.6
2023-02-11T12:07:15.252Z,1017.5
2023-02-11T12:08:31.490Z,1017.6
2023-02-11T12:09:47.714Z,1017.6
2023-02-11T12:11:03.954Z,1017.5
2023-02-11T12:12:20.200Z,1017.6
2023-02-11T12:13:36.449Z,1017.6
2023-02-11T12:14:52.691Z,1017.6
2023-02-11T12:16:08.931Z,1017.7
2023-02-11T12:17:25.151Z,1017.7
2023-02-11T12:18:41.408Z,1017.8
2023-02-11T12:19:56.649Z,1017.8
2023-02-11T12:21:12.901Z,1017.8
2023-02-11T12:22:29.138Z,1017.8
2023-02-11T12:23:45.388Z,1017.8
2023-02-11T12:25:01.605Z,1017.8
2023-02-11T12:26:17.847Z,1017.8
2023-02-11T12:27:34.098Z,1017.8
2023-02-11T12:28:50.328Z,1017.8
2023-02-11T12:30:06.573Z,1017.8
2023-02-11T12:31:22.816Z,1017.7
2023-02-11T12:32:39.039Z,1017.6
2023-02-11T12:33:55.282Z,1017.7
2023-02-11T12:35:11.519Z,1017.5
2023-02-11T12:36:26.778Z,1017.6
2023-02-11T12:37:43.021Z,1017.5
2023-02-11T12:38:59.262Z,1017.6
2023-02-11T12:40:15.495Z,1017.6
2023-02-11T12:41:31.738Z,1017.5
2023-02-11T12:42:47.983Z,1017.6
2023-02-11T12:44:04.213Z,1017.5
2023-02-11T12:45:20.470Z,1017.4
2023-02-11T12:46:36.693Z,1017.3
2023-02-11T12:47:52.946Z,1017.3
2023-02-11T12:49:09.178Z,1017.4
2023-02-11T12:50:25.410Z,1017.3
2023-02-11T12:51:41.647Z,1017.3
2023-02-11T12:52:56.920Z,1017.4
2023-02-11T12:54:13.161Z,1017.3
2023-02-11T12:55:29.403Z,1017.4
2023-02-11T12:56:45.629Z,1017.5
2023-02-11T12:58:01.870Z,1017.5
2023-02-11T12:59:18.109Z,1017.5
2023-02-11T13:00:34.348Z,1017.5
2023-02-11T13:01:50.587Z,1017.5
2023-02-11T13:03:06.826Z,1017.5
2023-02-11T13:04:23.056Z,1017.5
2023-02-11T13:14:06.690Z,1017.6
2023-02-11T13:15:22.918Z,1017.5
2023-02-11T13:16:39.147Z,1017.5
2023-02-11T13:17:55.388Z,1017.5
2023-02-11T13:19:11.642Z,1017.5
2023-02-11T13:20:27.886Z,1017.4
2023-02-11T13:21:44.128Z,1017.4
2023-02-11T13:23:00.370Z,1017.4
2023-02-11T13:24:16.605Z,1017.3
2023-02-11T13:25:32.826Z,1017.3
2023-02-11T13:26:49.076Z,1017.3
2023-02-11T13:28:05.308Z,1017.3
2023-02-11T13:29:21.547Z,1017.3
2023-02-11T13:30:37.784Z,1017.4
2023-02-11T13:31:54.034Z,1017.5
2023-02-11T13:33:10.277Z,1017.5
2023-02-11T13:34:26.512Z,1017.5
2023-02-11T13:35:42.755Z,1017.5
2023-02-11T13:36:58.996Z,1017.5
2023-02-11T13:38:15.248Z,1017.5
2023-02-11T13:39:30.499Z,1017.5
2023-02-11T13:40:45.745Z,1017.5
2023-02-11T13:42:01.991Z,1017.6
2023-02-11T13:43:18.224Z,1017.6
2023-02-11T13:44:34.468Z,1017.6
2023-02-11T13:45:50.708Z,1017.6
2023-02-11T13:47:06.954Z,1017.6
2023-02-11T13:48:23.179Z,1017.5
2023-02-11T13:49:39.433Z,1017.6
2023-02-11T13:50:55.658Z,1017.6
2023-02-11T13:52:11.906Z,1017.5
2023-02-11T13:53:28.146Z,1017.6
2023-02-11T13:54:44.384Z,1017.5
2023-02-11T13:56:00.633Z,1017.6
2023-02-11T13:57:15.872Z,1017.6
2023-02-11T13:58:32.128Z,1017.5
2023-02-11T13:59:48.351Z,1017.5
2023-02-11T14:01:04.602Z,1017.5
2023-02-11T14:02:20.841Z,1017.5
2023-02-11T14:03:37.081Z,1017.4
2023-02-11T14:04:53.314Z,1017.5
2023-02-11T14:06:08.578Z,1017.4
2023-02-11T14:07:23.832Z,1017.5
2023-02-11T14:08:40.088Z,1017.5
2023-02-11T14:09:56.310Z,1017.6
2023-02-11T14:11:12.544Z,1017.5
2023-02-11T14:12:28.782Z,1017.6
2023-02-11T14:13:45.037Z,1017.6
2023-02-11T14:15:01.280Z,1017.5
2023-02-11T14:16:17.511Z,1017.6
2023-02-11T14:17:33.754Z,1017.5
2023-02-11T14:18:49.986Z,1017.6
2023-02-11T14:20:06.228Z,1017.6
2023-02-11T14:21:22.463Z,1017.5
2023-02-11T14:22:38.710Z,1017.5
2023-02-11T14:23:53.959Z,1017.4
2023-02-11T14:25:10.216Z,1017.6
2023-02-11T14:26:26.449Z,1017.5
2023-02-11T14:27:42.702Z,1017.5
2023-02-11T14:28:58.935Z,1017.6
2023-02-11T14:30:15.170Z,1017.5
2023-02-11T14:31:31.397Z,1017.6
2023-02-11T14:32:46.661Z,1017.5
2023-02-11T14:34:01.926Z,1017.5
2023-02-11T14:35:17.177Z,1017.5
2023-02-11T14:36:32.438Z,1017.5
2023-02-11T14:37:48.686Z,1017.5
2023-02-11T14:39:04.906Z,1017.6
2023-02-11T14:40:21.152Z,1017.6
2023-02-11T14:41:37.403Z,1017.6
2023-02-11T14:42:53.627Z,1017.6
2023-02-11T14:44:09.882Z,1017.5
2023-02-11T14:45:26.113Z,1017.6
2023-02-11T14:46:42.349Z,1017.6
2023-02-11T14:47:58.585Z,1017.6
2023-02-11T14:49:14.829Z,1017.5
2023-02-11T14:50:31.073Z,1017.5
2023-02-11T14:51:47.306Z,1017.5
2023-02-11T14:53:02.570Z,1017.5
2023-02-11T14:54:18.812Z,1017.5
2023-02-11T14:55:35.055Z,1017.5
2023-02-11T14:56:51.278Z,1017.4
2023-02-11T14:58:07.000Z,1017.5
2023-02-11T14:59:23.765Z,1017.5
2023-02-11T15:00:39.996Z,1017.4
2023-02-11T15:01:55.265Z,1017.5
2023-02-11T15:03:10.524Z,1017.5
2023-02-11T15:04:25.779Z,1017.5
2023-02-11T15:05:41.044Z,1017.5
2023-02-11T15:06:56.299Z,1017.5
2023-02-11T15:08:11.569Z,1017.5
2023-02-11T15:09:27.801Z,1017.5
2023-02-11T15:10:44.033Z,1017.5
2023-02-11T15:12:00.273Z,1017.6
2023-02-11T15:13:16.508Z,1017.6
2023-02-11T15:14:32.753Z,1017.6
2023-02-11T15:15:48.984Z,1017.6
2023-02-11T15:17:05.230Z,1017.7
2023-02-11T15:18:21.476Z,1017.7
2023-02-11T15:19:37.707Z,1017.8
2023-02-11T15:20:53.942Z,1017.8
2023-02-11T15:22:10.201Z,1017.8
2023-02-11T15:23:26.435Z,1017.8
2023-02-11T15:24:41.682Z,1017.8
2023-02-11T15:25:57.922Z,1017.8
2023-02-11T15:27:14.167Z,1017.8
2023-02-11T15:28:30.398Z,1017.8
2023-02-11T15:29:46.637Z,1017.8
2023-02-11T15:31:02.884Z,1017.8
2023-02-11T15:32:19.133Z,1017.8
2023-02-11T15:33:34.378Z,1017.8
2023-02-11T15:34:49.647Z,1017.8
2023-02-11T15:36:04.897Z,1017.8
2023-02-11T15:37:20.166Z,1017.8
2023-02-11T15:38:36.390Z,1017.8
2023-02-11T15:39:52.649Z,1017.8
2023-02-11T15:41:08.888Z,1017.8
2023-02-11T15:42:25.113Z,1017.9
2023-02-11T15:43:41.354Z,1017.9
2023-02-11T15:44:57.590Z,1017.9
2023-02-11T15:46:13.838Z,1017.9
2023-02-11T15:47:30.074Z,1017.9
2023-02-11T15:48:46.310Z,1017.9
2023-02-11T15:50:02.563Z,1017.8
2023-02-11T15:51:18.803Z,1017.8
2023-02-11T15:52:35.025Z,1017.9
2023-02-11T15:53:50.293Z,1017.8
2023-02-11T15:55:06.534Z,1017.8
2023-02-11T15:56:22.761Z,1017.8
2023-02-11T15:57:39.012Z,1017.8
2023-02-11T15:58:55.238Z,1017.7
2023-02-11T16:00:11.491Z,1017.8
2023-02-11T16:01:27.721Z,1017.8
2023-02-11T16:02:42.995Z,1017.7